createdAt,value
2022-11-01T00:01:50.258Z,79.16
2022-11-01T00:04:20.291Z,78.96
2022-11-01T00:06:49.494Z,79.76
2022-11-01T00:09:19.063Z,79.65
2022-11-01T00:11:48.450Z,79.22
2022-11-01T00:14:19.826Z,79.48
2022-11-01T00:16:56.417Z,79.57
2022-11-01T00:19:25.735Z,79.74
2022-11-01T00:21:54.785Z,79.54
2022-11-01T00:24:30.697Z,79.74
2022-11-01T00:27:00.296Z,79.65
2022-11-01T00:29:29.490Z,79.54
2022-11-01T00:32:01.746Z,79.23
2022-11-01T00:34:30.994Z,78.47
2022-11-01T00:37:00.124Z,78.17
2022-11-01T00:39:31.390Z,78.52
2022-11-01T00:42:00.795Z,78.79
2022-11-01T00:47:11.532Z,78.67
2022-11-01T00:49:40.691Z,78.79
2022-11-01T00:52:09.791Z,79.29
2022-11-01T00:54:38.987Z,79.24
2022-11-01T00:57:08.291Z,80.07
2022-11-01T00:59:40.883Z,80.40
2022-11-01T01:02:12.596Z,81.16
2022-11-01T01:04:42.861Z,81.72
2022-11-01T01:07:13.520Z,81.99
2022-11-01T01:09:42.648Z,81.63
2022-11-01T01:12:12.253Z,81.66
2022-11-01T01:14:41.306Z,81.07
2022-11-01T01:17:12.344Z,81.69
2022-11-01T01:19:46.963Z,80.75
2022-11-01T01:22:16.139Z,80.58
2022-11-01T01:24:47.334Z,80.89
2022-11-01T01:27:17.401Z,81.08
2022-11-01T01:29:46.581Z,81.45
2022-11-01T01:32:19.292Z,81.55
2022-11-01T01:34:48.656Z,79.90
2022-11-01T01:37:24.846Z,78.84
2022-11-01T01:39:54.672Z,79.39
2022-11-01T01:42:35.630Z,79.78
2022-11-01T01:45:29.315Z,79.11
2022-11-01T01:48:12.504Z,79.00
2022-11-01T01:50:47.776Z,78.84
2022-11-01T01:53:22.652Z,78.79
2022-11-01T01:55:58.426Z,78.94
2022-11-01T01:58:31.696Z,79.38
2022-11-01T02:01:01.539Z,79.11
2022-11-01T02:03:36.494Z,79.18
2022-11-01T02:06:11.808Z,79.80
2022-11-01T02:08:47.165Z,79.46
2022-11-01T02:11:17.807Z,79.22
2022-11-01T02:13:51.979Z,78.89
2022-11-01T02:16:38.840Z,78.56
2022-11-01T02:19:33.808Z,79.27
2022-11-01T02:22:21.136Z,79.07
2022-11-01T02:25:12.016Z,78.79
2022-11-01T02:27:59.478Z,79.51
2022-11-01T02:30:41.277Z,79.37
2022-11-01T02:33:30.196Z,79.95
2022-11-01T02:36:06.552Z,79.03
2022-11-01T02:38:41.967Z,79.58
2022-11-01T02:41:24.179Z,79.96
2022-11-01T02:43:57.012Z,79.88
2022-11-01T02:46:48.497Z,80.28
2022-11-01T02:49:22.353Z,80.41
2022-11-01T02:51:53.197Z,81.37
2022-11-01T02:54:24.357Z,81.91
2022-11-01T02:56:53.810Z,81.96
2022-11-01T02:59:27.147Z,82.29
2022-11-01T03:02:03.102Z,82.17
2022-11-01T03:04:35.209Z,81.37
2022-11-01T03:07:09.574Z,81.53
2022-11-01T03:09:44.354Z,81.41
2022-11-01T03:15:05.002Z,80.87
2022-11-01T03:17:46.979Z,80.99
2022-11-01T03:20:22.574Z,81.37
2022-11-01T03:22:56.695Z,80.67
2022-11-01T03:25:43.938Z,80.59
2022-11-01T03:28:20.959Z,79.97
2022-11-01T03:30:55.473Z,79.45
2022-11-01T03:33:33.229Z,78.55
2022-11-01T03:36:13.477Z,78.08
2022-11-01T03:41:34.560Z,78.37
2022-11-01T03:44:04.964Z,78.52
2022-11-01T03:46:34.265Z,78.35
2022-11-01T03:49:03.549Z,78.64
2022-11-01T03:51:39.664Z,78.04
2022-11-01T03:54:11.093Z,77.71
2022-11-01T03:56:46.833Z,77.81
2022-11-01T03:59:16.728Z,78.02
2022-11-01T04:01:46.172Z,77.93
2022-11-01T04:04:15.349Z,77.87
2022-11-01T04:06:46.450Z,77.89
2022-11-01T04:09:17.973Z,78.32
2022-11-01T04:11:47.117Z,78.41
2022-11-01T04:14:29.137Z,78.99
2022-11-01T04:17:11.325Z,78.92
2022-11-01T04:19:53.051Z,79.11
2022-11-01T04:22:29.390Z,79.08
2022-11-01T04:24:59.681Z,79.06
2022-11-01T04:27:33.969Z,78.93
2022-11-01T04:30:03.287Z,78.78
2022-11-01T04:32:38.092Z,77.77
2022-11-01T04:35:11.180Z,77.96
2022-11-01T04:37:47.969Z,78.18
2022-11-01T04:40:22.776Z,78.16
2022-11-01T04:45:27.760Z,78.74
2022-11-01T04:48:04.572Z,78.59
2022-11-01T04:50:34.746Z,78.36
2022-11-01T04:53:06.477Z,78.45
2022-11-01T04:55:35.567Z,78.83
2022-11-01T04:58:06.252Z,78.48
2022-11-01T05:00:36.010Z,78.62
2022-11-01T05:03:07.053Z,78.54
2022-11-01T05:05:38.704Z,78.20
2022-11-01T05:08:15.997Z,77.83
2022-11-01T05:10:56.662Z,77.86
2022-11-01T05:13:27.127Z,77.96
2022-11-01T05:18:45.740Z,78.37
2022-11-01T05:21:14.870Z,78.10
2022-11-01T05:23:51.212Z,77.46
2022-11-01T05:28:55.528Z,78.29
2022-11-01T05:31:24.739Z,78.08
2022-11-01T05:34:06.032Z,77.57
2022-11-01T05:36:35.504Z,77.38
2022-11-01T05:39:06.891Z,76.28
2022-11-01T05:41:36.144Z,76.37
2022-11-01T05:44:06.755Z,76.44
2022-11-01T05:46:36.067Z,76.32
2022-11-01T05:49:05.344Z,75.94
2022-11-01T05:51:34.828Z,75.89
2022-11-01T05:54:06.419Z,75.93
2022-11-01T05:56:41.114Z,75.73
2022-11-01T05:59:10.289Z,75.78
2022-11-01T06:01:39.820Z,76.07
2022-11-01T06:04:19.027Z,75.56
2022-11-01T06:06:48.100Z,75.90
2022-11-01T06:09:19.185Z,75.77
2022-11-01T06:11:48.497Z,76.09
2022-11-01T06:14:18.446Z,76.33
2022-11-01T06:16:47.754Z,76.31
2022-11-01T06:19:17.012Z,76.37
2022-11-01T06:21:51.224Z,75.86
2022-11-01T06:24:22.571Z,75.74
2022-11-01T06:27:12.860Z,75.46
2022-11-01T06:29:42.197Z,75.93
2022-11-01T06:32:18.876Z,75.78
2022-11-01T06:34:48.068Z,74.97
2022-11-01T06:37:17.292Z,75.06
2022-11-01T06:39:53.553Z,75.34
2022-11-01T06:42:22.737Z,76.14
2022-11-01T06:44:51.956Z,76.08
2022-11-01T06:47:21.249Z,75.88
2022-11-01T06:49:50.387Z,75.58
2022-11-01T06:52:19.649Z,75.49
2022-11-01T06:54:50.854Z,75.29
2022-11-01T06:57:20.143Z,75.58
2022-11-01T06:59:49.284Z,75.22
2022-11-01T07:02:22.529Z,75.39
2022-11-01T07:04:55.181Z,75.18
2022-11-01T07:07:24.378Z,75.37
2022-11-01T07:09:55.680Z,75.72
2022-11-01T07:12:25.008Z,75.50
2022-11-01T07:14:54.154Z,75.39
2022-11-01T07:17:23.715Z,75.55
2022-11-01T07:19:53.256Z,75.47
2022-11-01T07:22:22.640Z,75.16
2022-11-01T07:24:51.885Z,75.02
2022-11-01T07:27:23.433Z,74.99
2022-11-01T07:29:52.780Z,74.74
2022-11-01T07:32:21.916Z,74.40
2022-11-01T07:34:51.272Z,74.81
2022-11-01T07:37:20.498Z,75.19
2022-11-01T07:39:54.879Z,74.81
2022-11-01T07:42:26.127Z,74.80
2022-11-01T07:45:00.713Z,75.17
2022-11-01T07:47:30.229Z,74.23
2022-11-01T07:49:59.432Z,74.85
2022-11-01T07:52:28.678Z,74.50
2022-11-01T07:54:57.789Z,73.86
2022-11-01T07:57:29.075Z,73.92
2022-11-01T07:59:58.711Z,73.74
2022-11-01T08:02:27.835Z,73.10
2022-11-01T08:04:57.224Z,73.28
2022-11-01T08:07:29.314Z,73.30
2022-11-01T08:09:59.528Z,73.62
2022-11-01T08:12:30.582Z,73.39
2022-11-01T08:15:07.392Z,72.92
2022-11-01T08:17:36.621Z,72.98
2022-11-01T08:20:06.604Z,72.93
2022-11-01T08:22:41.051Z,73.25
2022-11-01T08:27:56.745Z,72.89
2022-11-01T08:30:30.990Z,72.28
2022-11-01T08:33:01.604Z,72.18
2022-11-01T08:35:33.479Z,71.73
2022-11-01T08:38:03.556Z,72.14
2022-11-01T08:40:33.555Z,71.32
2022-11-01T08:43:09.090Z,72.00
2022-11-01T08:45:38.636Z,72.02
2022-11-01T08:48:08.384Z,71.29
2022-11-01T08:50:37.968Z,71.15
2022-11-01T08:53:07.683Z,71.50
2022-11-01T08:55:38.459Z,71.05
2022-11-01T08:58:10.190Z,70.48
2022-11-01T09:00:39.687Z,70.47
2022-11-01T09:03:08.838Z,71.29
2022-11-01T09:05:38.290Z,71.44
2022-11-01T09:08:07.770Z,70.64
2022-11-01T09:10:36.965Z,70.57
2022-11-01T09:13:06.813Z,70.36
2022-11-01T09:15:38.551Z,71.28
2022-11-01T09:18:08.781Z,70.53
2022-11-01T09:20:37.972Z,70.15
2022-11-01T09:23:07.100Z,71.00
2022-11-01T09:25:36.530Z,70.91
2022-11-01T09:28:05.879Z,70.73
2022-11-01T09:30:35.041Z,70.75
2022-11-01T09:33:10.706Z,70.11
2022-11-01T09:35:40.101Z,69.65
2022-11-01T09:38:09.467Z,68.91
2022-11-01T09:40:46.254Z,69.99
2022-11-01T09:43:22.490Z,69.60
2022-11-01T09:48:39.577Z,70.93
2022-11-01T09:51:14.414Z,70.30
2022-11-01T09:53:44.050Z,70.19
2022-11-01T09:56:16.964Z,70.13
2022-11-01T09:59:01.278Z,70.32
2022-11-01T10:01:43.004Z,68.99
2022-11-01T10:04:51.117Z,70.11
2022-11-01T10:07:34.832Z,70.69
2022-11-01T10:10:18.793Z,70.47
2022-11-01T10:13:01.841Z,70.18
2022-11-01T10:15:42.602Z,70.45
2022-11-01T10:18:26.305Z,70.83
2022-11-01T10:20:58.223Z,70.47
2022-11-01T10:23:35.349Z,70.50
2022-11-01T10:26:15.140Z,69.87
2022-11-01T10:28:53.999Z,69.50
2022-11-01T10:31:26.115Z,70.33
2022-11-01T10:34:02.154Z,70.09
2022-11-01T10:36:39.117Z,70.40
2022-11-01T10:39:53.496Z,69.65
2022-11-01T10:42:15.571Z,69.25
2022-11-01T10:44:54.349Z,69.23
2022-11-01T10:47:25.947Z,69.35
2022-11-01T10:50:09.093Z,69.83
2022-11-01T10:52:48.767Z,69.69
2022-11-01T10:55:24.837Z,69.56
2022-11-01T10:58:02.844Z,70.02
2022-11-01T11:00:36.110Z,70.13
2022-11-01T11:03:23.040Z,70.16
2022-11-01T11:05:54.111Z,70.17
2022-11-01T11:08:25.755Z,70.54
2022-11-01T11:11:04.687Z,70.64
2022-11-01T11:13:35.722Z,69.84
2022-11-01T11:16:23.592Z,69.71
2022-11-01T11:19:04.339Z,70.08
2022-11-01T11:21:42.160Z,70.64
2022-11-01T11:27:28.979Z,70.66
2022-11-01T11:30:01.343Z,70.45
2022-11-01T11:32:40.440Z,70.23
2022-11-01T11:35:18.808Z,70.57
2022-11-01T11:37:57.072Z,70.40
2022-11-01T11:40:28.116Z,70.24
2022-11-01T11:43:24.153Z,70.13
2022-11-01T11:46:13.434Z,70.76
2022-11-01T11:48:50.410Z,70.62
2022-11-01T11:51:20.131Z,70.92
2022-11-01T11:54:34.959Z,70.99
2022-11-01T11:57:12.677Z,70.65
2022-11-01T12:02:50.530Z,70.44
2022-11-01T12:05:22.954Z,70.31
2022-11-01T12:07:58.809Z,70.18
2022-11-01T12:10:35.879Z,70.87
2022-11-01T12:13:28.137Z,71.12
2022-11-01T12:16:17.354Z,71.55
2022-11-01T12:18:55.309Z,71.27
2022-11-01T12:21:30.630Z,71.27
2022-11-01T12:24:10.915Z,70.91
2022-11-01T12:26:40.410Z,71.45
2022-11-01T12:29:26.805Z,70.98
2022-11-01T12:32:03.436Z,71.48
2022-11-01T12:34:39.770Z,71.17
2022-11-01T12:37:20.706Z,71.37
2022-11-01T12:39:55.748Z,71.17
2022-11-01T12:42:30.513Z,70.46
2022-11-01T12:45:04.782Z,70.89
2022-11-01T12:47:47.548Z,70.88
2022-11-01T12:55:55.942Z,71.40
2022-11-01T12:58:26.184Z,72.03
2022-11-01T13:01:09.802Z,72.34
2022-11-01T13:03:47.032Z,72.64
2022-11-01T13:06:32.983Z,72.56
2022-11-01T13:09:10.208Z,72.41
2022-11-01T13:11:59.815Z,72.81
2022-11-01T13:14:50.107Z,73.00
2022-11-01T13:17:27.841Z,72.94
2022-11-01T13:20:06.864Z,72.78
2022-11-01T13:22:44.902Z,72.37
2022-11-01T13:25:21.946Z,72.43
2022-11-01T13:28:02.214Z,72.57
2022-11-01T13:30:35.217Z,72.73
2022-11-01T13:33:15.316Z,72.73
2022-11-01T13:35:55.019Z,71.87
2022-11-01T13:38:39.715Z,72.06
2022-11-01T13:41:19.102Z,72.87
2022-11-01T13:44:00.526Z,73.06
2022-11-01T13:47:01.295Z,72.56
2022-11-01T13:49:45.275Z,73.38
2022-11-01T13:52:24.868Z,73.48
2022-11-01T13:55:05.716Z,73.87
2022-11-01T13:57:35.119Z,73.58
2022-11-01T14:00:10.824Z,73.60
2022-11-01T14:02:56.075Z,73.82
2022-11-01T14:05:39.263Z,74.01
2022-11-01T14:08:15.785Z,73.90
2022-11-01T14:10:52.328Z,73.70
2022-11-01T14:13:33.313Z,74.14
2022-11-01T14:16:25.621Z,73.33
2022-11-01T14:19:20.107Z,73.64
2022-11-01T14:21:53.502Z,74.16
2022-11-01T14:24:34.569Z,74.58
2022-11-01T14:27:35.409Z,74.81
2022-11-01T14:30:15.146Z,74.42
2022-11-01T14:32:52.131Z,74.69
2022-11-01T14:35:26.687Z,74.75
2022-11-01T14:38:02.250Z,74.67
2022-11-01T14:40:35.219Z,74.23
2022-11-01T14:43:12.976Z,74.33
2022-11-01T14:45:45.946Z,74.28
2022-11-01T14:48:22.804Z,74.66
2022-11-01T14:50:59.369Z,74.82
2022-11-01T14:53:34.276Z,74.64
2022-11-01T14:56:16.249Z,75.01
2022-11-01T14:58:45.969Z,74.27
2022-11-01T15:01:17.267Z,73.94
2022-11-01T15:04:03.005Z,74.11
2022-11-01T15:06:32.800Z,74.19
2022-11-01T15:09:04.785Z,74.68
2022-11-01T15:11:39.292Z,74.87
2022-11-01T15:14:15.057Z,74.57
2022-11-01T15:16:48.044Z,74.48
2022-11-01T15:19:27.699Z,75.01
2022-11-01T15:22:02.776Z,74.92
2022-11-01T15:24:35.339Z,75.18
2022-11-01T15:27:15.535Z,75.24
2022-11-01T15:29:45.496Z,75.05
2022-11-01T15:32:25.331Z,74.87
2022-11-01T15:34:58.111Z,75.02
2022-11-01T15:37:32.214Z,74.50
2022-11-01T15:40:02.439Z,74.76
2022-11-01T15:42:34.343Z,75.22
2022-11-01T15:45:22.578Z,75.20
2022-11-01T15:47:52.052Z,75.05
2022-11-01T15:50:23.390Z,74.95
2022-11-01T15:52:52.819Z,75.44
2022-11-01T15:55:31.762Z,75.71
2022-11-01T15:58:06.562Z,75.74
2022-11-01T16:00:40.228Z,75.65
2022-11-01T16:03:16.245Z,75.71
2022-11-01T16:05:58.493Z,75.83
2022-11-01T16:08:31.441Z,75.56
2022-11-01T16:11:01.451Z,75.57
2022-11-01T16:13:33.030Z,75.57
2022-11-01T16:16:08.100Z,75.91
2022-11-01T16:18:38.808Z,76.29
2022-11-01T16:21:33.610Z,75.95
2022-11-01T16:24:15.283Z,75.56
2022-11-01T16:26:55.198Z,75.70
2022-11-01T16:29:39.816Z,76.27
2022-11-01T16:32:17.614Z,76.36
2022-11-01T16:34:54.096Z,76.27
2022-11-01T16:37:27.659Z,76.59
2022-11-01T16:39:58.686Z,76.56
2022-11-01T16:42:29.142Z,76.71
2022-11-01T16:44:58.702Z,76.40
2022-11-01T16:47:28.170Z,76.12
2022-11-01T16:49:57.778Z,75.92
2022-11-01T16:52:28.840Z,76.02
2022-11-01T16:55:03.550Z,76.14
2022-11-01T16:57:33.034Z,76.03
2022-11-01T17:00:04.309Z,76.51
2022-11-01T17:02:34.451Z,76.53
2022-11-01T17:05:09.884Z,76.41
2022-11-01T17:07:41.184Z,76.07
2022-11-01T17:10:19.070Z,76.18
2022-11-01T17:12:48.915Z,76.05
2022-11-01T17:15:19.044Z,76.25
2022-11-01T17:17:50.888Z,76.31
2022-11-01T17:20:23.357Z,76.91
2022-11-01T17:23:01.632Z,76.14
2022-11-01T17:25:32.203Z,76.31
2022-11-01T17:28:02.418Z,76.07
2022-11-01T17:30:32.055Z,76.14
2022-11-01T17:33:06.190Z,76.65
2022-11-01T17:35:36.254Z,76.28
2022-11-01T17:38:09.281Z,76.91
2022-11-01T17:40:38.685Z,76.76
2022-11-01T17:43:08.055Z,76.72
2022-11-01T17:45:38.602Z,76.62
2022-11-01T17:48:08.336Z,76.62
2022-11-01T17:50:39.235Z,76.82
2022-11-01T17:53:13.978Z,76.70
2022-11-01T17:55:44.373Z,76.26
2022-11-01T17:58:14.591Z,75.96
2022-11-01T18:00:44.650Z,75.93
2022-11-01T18:03:19.465Z,76.04
2022-11-01T18:05:49.228Z,76.61
2022-11-01T18:08:22.499Z,76.38
2022-11-01T18:11:04.783Z,76.62
2022-11-01T18:13:44.687Z,77.29
2022-11-01T18:16:26.896Z,76.25
2022-11-01T18:19:35.349Z,76.70
2022-11-01T18:22:22.453Z,76.79
2022-11-01T18:24:59.149Z,76.81
2022-11-01T18:27:35.704Z,76.66
2022-11-01T18:30:13.989Z,76.79
2022-11-01T18:32:55.246Z,76.94
2022-11-01T18:35:32.453Z,76.93
2022-11-01T18:38:20.766Z,76.44
2022-11-01T18:40:59.061Z,76.63
2022-11-01T18:43:30.657Z,75.88
2022-11-01T18:48:50.035Z,75.64
2022-11-01T18:51:28.621Z,75.63
2022-11-01T18:54:03.762Z,75.99
2022-11-01T18:56:35.301Z,76.11
2022-11-01T18:59:20.167Z,76.13
2022-11-01T19:01:53.746Z,76.37
2022-11-01T19:04:26.720Z,75.96
2022-11-01T19:07:09.590Z,75.85
2022-11-01T19:09:44.025Z,76.38
2022-11-01T19:12:21.614Z,75.97
2022-11-01T19:15:05.248Z,76.70
2022-11-01T19:17:40.657Z,76.04
2022-11-01T19:20:25.077Z,75.88
2022-11-01T19:22:56.748Z,76.48
2022-11-01T19:25:30.034Z,76.42
2022-11-01T19:28:14.424Z,76.44
2022-11-01T19:30:51.878Z,76.31
2022-11-01T19:33:29.949Z,76.18
2022-11-01T19:36:05.680Z,75.87
2022-11-01T19:38:36.236Z,76.39
2022-11-01T19:41:05.727Z,76.23
2022-11-01T19:43:36.918Z,76.35
2022-11-01T19:46:06.226Z,76.31
2022-11-01T19:48:37.228Z,76.39
2022-11-01T19:51:15.982Z,76.69
2022-11-01T19:53:52.033Z,76.29
2022-11-01T19:56:23.954Z,76.27
2022-11-01T19:59:08.399Z,76.56
2022-11-01T20:01:41.644Z,76.49
2022-11-01T20:04:27.421Z,76.46
2022-11-01T20:07:00.623Z,76.32
2022-11-01T20:09:41.510Z,76.09
2022-11-01T20:12:11.620Z,76.13
2022-11-01T20:14:43.213Z,76.57
2022-11-01T20:17:12.701Z,76.42
2022-11-01T20:19:41.928Z,76.34
2022-11-01T20:22:11.260Z,76.07
2022-11-01T20:24:40.400Z,76.57
2022-11-01T20:27:09.566Z,76.54
2022-11-01T20:29:38.672Z,75.94
2022-11-01T20:32:09.784Z,76.59
2022-11-01T20:34:39.333Z,76.36
2022-11-01T20:37:27.643Z,76.44
2022-11-01T20:39:58.219Z,76.59
2022-11-01T20:42:27.440Z,76.99
2022-11-01T20:45:01.647Z,76.89
2022-11-01T20:47:35.716Z,77.72
2022-11-01T20:50:08.998Z,77.27
2022-11-01T20:52:40.219Z,77.54
2022-11-01T20:57:51.565Z,78.15
2022-11-01T21:00:21.098Z,77.97
2022-11-01T21:02:53.536Z,78.69
2022-11-01T21:05:25.086Z,78.65
2022-11-01T21:08:06.114Z,78.63
2022-11-01T21:10:37.422Z,78.60
2022-11-01T21:13:21.927Z,78.05
2022-11-01T21:16:02.335Z,78.59
2022-11-01T21:18:43.394Z,78.44
2022-11-01T21:21:34.635Z,78.69
2022-11-01T21:24:37.012Z,78.80
2022-11-01T21:27:34.387Z,78.57
2022-11-01T21:30:16.865Z,79.08
2022-11-01T21:32:47.272Z,79.25
2022-11-01T21:35:38.729Z,79.36
2022-11-01T21:38:42.535Z,79.62
2022-11-01T21:41:39.179Z,79.88
2022-11-01T21:44:22.924Z,80.16
2022-11-01T21:46:53.871Z,80.37
2022-11-01T21:49:29.505Z,79.73
2022-11-01T21:52:02.431Z,79.84
2022-11-01T21:54:33.596Z,79.95
2022-11-01T21:57:03.946Z,79.61
2022-11-01T21:59:33.890Z,80.22
2022-11-01T22:02:03.748Z,80.33
2022-11-01T22:04:34.177Z,79.97
2022-11-01T22:07:06.777Z,80.04
2022-11-01T22:09:36.492Z,80.07
2022-11-01T22:12:06.483Z,80.28
2022-11-01T22:14:37.082Z,79.81
2022-11-01T22:17:06.628Z,79.98
2022-11-01T22:19:35.685Z,80.09
2022-11-01T22:22:06.919Z,80.16
2022-11-01T22:24:44.815Z,80.66
2022-11-01T22:27:20.273Z,80.96
2022-11-01T22:29:49.431Z,80.14
2022-11-01T22:32:18.934Z,80.06
2022-11-01T22:34:48.307Z,79.70
2022-11-01T22:37:19.508Z,79.68
2022-11-01T22:39:52.949Z,80.44
2022-11-01T22:42:23.115Z,80.38
2022-11-01T22:44:52.566Z,80.37
2022-11-01T22:47:26.998Z,80.13
2022-11-01T22:49:57.895Z,80.30
2022-11-01T22:52:33.555Z,80.46
2022-11-01T22:55:22.507Z,80.31
2022-11-01T22:57:55.310Z,80.36
2022-11-01T23:00:32.916Z,80.54
2022-11-01T23:03:04.541Z,80.21
2022-11-01T23:08:28.940Z,80.15
2022-11-01T23:11:04.631Z,80.26
2022-11-01T23:14:00.837Z,79.94
2022-11-01T23:16:33.454Z,80.02
2022-11-01T23:19:03.656Z,79.78
2022-11-01T23:21:32.873Z,79.57
2022-11-01T23:24:04.348Z,79.74
2022-11-01T23:26:39.054Z,79.29
2022-11-01T23:29:08.152Z,79.46
2022-11-01T23:31:37.323Z,79.25
2022-11-01T23:34:08.194Z,79.25
2022-11-01T23:36:39.425Z,79.67
2022-11-01T23:39:14.152Z,79.37
2022-11-01T23:41:45.135Z,79.26
2022-11-01T23:44:21.218Z,79.27
2022-11-01T23:46:50.650Z,79.41
2022-11-01T23:49:22.673Z,79.37
2022-11-01T23:51:53.028Z,79.11
2022-11-01T23:54:28.569Z,79.44
2022-11-01T23:56:57.871Z,79.55
2022-11-01T23:59:27.543Z,79.42
